sensor_id;sensor_type;location;lat;lon;timestamp;P1;durP1;ratioP1;P2;durP2;ratioP2
4311;SDS011;2169;49.086;9.284;2022-07-23T00:01:39;7.57;;;5.63;;
4311;SDS011;2169;49.086;9.284;2022-07-23T00:04:06;6.30;;;5.80;;
4311;SDS011;2169;49.086;9.284;2022-07-23T00:06:33;3.93;;;3.63;;
4311;SDS011;2169;49.086;9.284;2022-07-23T00:09:00;5.40;;;4.63;;
4311;SDS011;2169;49.086;9.284;2022-07-23T00:11:28;5.67;;;5.17;;
4311;SDS011;2169;49.086;9.284;2022-07-23T00:13:55;4.87;;;4.00;;
4311;SDS011;2169;49.086;9.284;2022-07-23T00:16:23;6.20;;;5.57;;
4311;SDS011;2169;49.086;9.284;2022-07-23T00:18:49;4.93;;;4.53;;
4311;SDS011;2169;49.086;9.284;2022-07-23T00:21:16;4.27;;;3.93;;
4311;SDS011;2169;49.086;9.284;2022-07-23T00:23:43;5.10;;;4.43;;
4311;SDS011;2169;49.086;9.284;2022-07-23T00:26:10;6.50;;;5.03;;
4311;SDS011;2169;49.086;9.284;2022-07-23T00:28:38;7.13;;;5.63;;
4311;SDS011;2169;49.086;9.284;2022-07-23T00:31:05;6.43;;;5.13;;
4311;SDS011;2169;49.086;9.284;2022-07-23T00:33:31;7.20;;;5.37;;
4311;SDS011;2169;49.086;9.284;2022-07-23T00:35:58;6.30;;;5.70;;
4311;SDS011;2169;49.086;9.284;2022-07-23T00:38:25;4.83;;;4.37;;
4311;SDS011;2169;49.086;9.284;2022-07-23T00:40:52;13.83;;;5.03;;
4311;SDS011;2169;49.086;9.284;2022-07-23T00:43:19;10.17;;;3.97;;
4311;SDS011;2169;49.086;9.284;2022-07-23T00:45:47;5.43;;;5.00;;
4311;SDS011;2169;49.086;9.284;2022-07-23T00:48:14;4.40;;;4.00;;
4311;SDS011;2169;49.086;9.284;2022-07-23T00:50:42;5.17;;;4.67;;
4311;SDS011;2169;49.086;9.284;2022-07-23T00:53:09;3.93;;;3.70;;
4311;SDS011;2169;49.086;9.284;2022-07-23T00:55:36;6.87;;;3.93;;
4311;SDS011;2169;49.086;9.284;2022-07-23T00:58:04;7.00;;;6.17;;
4311;SDS011;2169;49.086;9.284;2022-07-23T01:00:31;11.30;;;5.23;;
4311;SDS011;2169;49.086;9.284;2022-07-23T01:02:59;6.80;;;5.43;;
4311;SDS011;2169;49.086;9.284;2022-07-23T01:05:26;7.23;;;4.77;;
4311;SDS011;2169;49.086;9.284;2022-07-23T01:07:52;7.17;;;4.57;;
4311;SDS011;2169;49.086;9.284;2022-07-23T01:10:20;4.80;;;4.40;;
4311;SDS011;2169;49.086;9.284;2022-07-23T01:12:59;8.67;;;5.60;;
4311;SDS011;2169;49.086;9.284;2022-07-23T01:15:27;10.57;;;3.77;;
4311;SDS011;2169;49.086;9.284;2022-07-23T01:17:53;5.43;;;4.53;;
4311;SDS011;2169;49.086;9.284;2022-07-23T01:20:22;5.13;;;4.67;;
4311;SDS011;2169;49.086;9.284;2022-07-23T01:22:50;8.80;;;5.03;;
4311;SDS011;2169;49.086;9.284;2022-07-23T01:25:18;5.30;;;4.90;;
4311;SDS011;2169;49.086;9.284;2022-07-23T01:27:45;7.00;;;5.10;;
4311;SDS011;2169;49.086;9.284;2022-07-23T01:30:12;6.60;;;4.90;;
4311;SDS011;2169;49.086;9.284;2022-07-23T01:32:39;4.40;;;4.00;;
4311;SDS011;2169;49.086;9.284;2022-07-23T01:35:07;5.33;;;4.90;;
4311;SDS011;2169;49.086;9.284;2022-07-23T01:37:34;3.60;;;3.40;;
4311;SDS011;2169;49.086;9.284;2022-07-23T01:40:03;6.13;;;3.87;;
4311;SDS011;2169;49.086;9.284;2022-07-23T01:42:31;5.57;;;5.10;;
4311;SDS011;2169;49.086;9.284;2022-07-23T01:44:58;7.40;;;3.43;;
4311;SDS011;2169;49.086;9.284;2022-07-23T01:47:25;3.90;;;3.60;;
4311;SDS011;2169;49.086;9.284;2022-07-23T01:49:52;4.37;;;3.60;;
4311;SDS011;2169;49.086;9.284;2022-07-23T01:52:19;10.07;;;3.03;;
4311;SDS011;2169;49.086;9.284;2022-07-23T01:54:45;4.97;;;4.50;;
4311;SDS011;2169;49.086;9.284;2022-07-23T01:57:14;5.47;;;4.63;;
4311;SDS011;2169;49.086;9.284;2022-07-23T01:59:40;6.87;;;4.10;;
4311;SDS011;2169;49.086;9.284;2022-07-23T02:02:07;4.97;;;3.73;;
4311;SDS011;2169;49.086;9.284;2022-07-23T02:04:34;3.80;;;3.60;;
4311;SDS011;2169;49.086;9.284;2022-07-23T02:07:01;4.40;;;4.00;;
4311;SDS011;2169;49.086;9.284;2022-07-23T02:09:28;5.47;;;3.47;;
4311;SDS011;2169;49.086;9.284;2022-07-23T02:11:55;7.17;;;5.50;;
4311;SDS011;2169;49.086;9.284;2022-07-23T02:14:24;9.80;;;4.20;;
4311;SDS011;2169;49.086;9.284;2022-07-23T02:16:50;5.60;;;3.40;;
4311;SDS011;2169;49.086;9.284;2022-07-23T02:19:17;3.70;;;3.43;;
4311;SDS011;2169;49.086;9.284;2022-07-23T02:21:44;3.10;;;2.90;;
4311;SDS011;2169;49.086;9.284;2022-07-23T02:24:11;4.20;;;3.87;;
4311;SDS011;2169;49.086;9.284;2022-07-23T02:26:37;4.00;;;3.70;;
4311;SDS011;2169;49.086;9.284;2022-07-23T02:29:04;5.30;;;4.70;;
4311;SDS011;2169;49.086;9.284;2022-07-23T02:31:33;4.23;;;3.23;;
4311;SDS011;2169;49.086;9.284;2022-07-23T02:34:00;4.80;;;3.80;;
4311;SDS011;2169;49.086;9.284;2022-07-23T02:36:27;4.87;;;4.47;;
4311;SDS011;2169;49.086;9.284;2022-07-23T02:38:54;3.80;;;3.40;;
4311;SDS011;2169;49.086;9.284;2022-07-23T02:41:21;5.07;;;4.60;;
4311;SDS011;2169;49.086;9.284;2022-07-23T02:43:48;5.23;;;4.70;;
4311;SDS011;2169;49.086;9.284;2022-07-23T02:46:15;6.00;;;4.73;;
4311;SDS011;2169;49.086;9.284;2022-07-23T02:48:43;7.80;;;4.13;;
4311;SDS011;2169;49.086;9.284;2022-07-23T02:51:10;4.40;;;3.80;;
4311;SDS011;2169;49.086;9.284;2022-07-23T02:53:37;4.30;;;4.00;;
4311;SDS011;2169;49.086;9.284;2022-07-23T02:56:04;6.00;;;5.50;;
4311;SDS011;2169;49.086;9.284;2022-07-23T02:58:30;5.43;;;5.07;;
4311;SDS011;2169;49.086;9.284;2022-07-23T03:00:57;6.70;;;5.50;;
4311;SDS011;2169;49.086;9.284;2022-07-23T03:03:24;7.07;;;5.90;;
4311;SDS011;2169;49.086;9.284;2022-07-23T03:05:52;6.70;;;6.10;;
4311;SDS011;2169;49.086;9.284;2022-07-23T03:08:19;11.67;;;6.13;;
4311;SDS011;2169;49.086;9.284;2022-07-23T03:10:46;8.20;;;6.80;;
4311;SDS011;2169;49.086;9.284;2022-07-23T03:13:12;8.83;;;5.97;;
4311;SDS011;2169;49.086;9.284;2022-07-23T03:15:39;7.60;;;5.80;;
4311;SDS011;2169;49.086;9.284;2022-07-23T03:18:06;6.47;;;5.03;;
4311;SDS011;2169;49.086;9.284;2022-07-23T03:20:33;10.30;;;6.73;;
4311;SDS011;2169;49.086;9.284;2022-07-23T03:23:01;6.30;;;5.70;;
4311;SDS011;2169;49.086;9.284;2022-07-23T03:25:27;5.53;;;5.00;;
4311;SDS011;2169;49.086;9.284;2022-07-23T03:27:54;6.30;;;5.67;;
4311;SDS011;2169;49.086;9.284;2022-07-23T03:30:21;7.63;;;4.67;;
4311;SDS011;2169;49.086;9.284;2022-07-23T03:32:48;7.57;;;5.97;;
4311;SDS011;2169;49.086;9.284;2022-07-23T03:35:15;7.93;;;6.47;;
4311;SDS011;2169;49.086;9.284;2022-07-23T03:37:42;6.57;;;6.07;;
4311;SDS011;2169;49.086;9.284;2022-07-23T03:40:10;7.57;;;5.93;;
4311;SDS011;2169;49.086;9.284;2022-07-23T03:42:37;6.20;;;5.60;;
4311;SDS011;2169;49.086;9.284;2022-07-23T03:45:06;6.07;;;5.57;;
4311;SDS011;2169;49.086;9.284;2022-07-23T03:47:33;5.90;;;5.40;;
4311;SDS011;2169;49.086;9.284;2022-07-23T03:50:00;7.93;;;5.50;;
4311;SDS011;2169;49.086;9.284;2022-07-23T03:52:27;5.53;;;4.70;;
4311;SDS011;2169;49.086;9.284;2022-07-23T03:54:54;7.17;;;5.07;;
4311;SDS011;2169;49.086;9.284;2022-07-23T03:57:22;6.30;;;4.90;;
4311;SDS011;2169;49.086;9.284;2022-07-23T03:59:49;6.57;;;5.60;;
4311;SDS011;2169;49.086;9.284;2022-07-23T04:02:15;7.53;;;5.33;;
4311;SDS011;2169;49.086;9.284;2022-07-23T04:04:42;4.07;;;3.73;;
4311;SDS011;2169;49.086;9.284;2022-07-23T04:07:09;5.23;;;4.60;;
4311;SDS011;2169;49.086;9.284;2022-07-23T04:09:36;5.37;;;4.90;;
4311;SDS011;2169;49.086;9.284;2022-07-23T04:12:03;11.30;;;5.97;;
4311;SDS011;2169;49.086;9.284;2022-07-23T04:14:31;5.23;;;4.73;;
4311;SDS011;2169;49.086;9.284;2022-07-23T04:16:58;4.63;;;4.23;;
4311;SDS011;2169;49.086;9.284;2022-07-23T04:19:25;8.20;;;5.73;;
4311;SDS011;2169;49.086;9.284;2022-07-23T04:21:52;6.60;;;4.60;;
4311;SDS011;2169;49.086;9.284;2022-07-23T04:24:19;9.63;;;6.20;;
4311;SDS011;2169;49.086;9.284;2022-07-23T04:26:46;4.30;;;3.90;;
4311;SDS011;2169;49.086;9.284;2022-07-23T04:29:12;7.97;;;6.00;;
4311;SDS011;2169;49.086;9.284;2022-07-23T04:31:40;4.80;;;4.20;;
4311;SDS011;2169;49.086;9.284;2022-07-23T04:34:07;6.63;;;5.60;;
4311;SDS011;2169;49.086;9.284;2022-07-23T04:36:34;4.77;;;4.37;;
4311;SDS011;2169;49.086;9.284;2022-07-23T04:39:01;4.63;;;4.23;;
4311;SDS011;2169;49.086;9.284;2022-07-23T04:41:28;5.43;;;4.20;;
4311;SDS011;2169;49.086;9.284;2022-07-23T04:43:54;6.00;;;5.07;;
4311;SDS011;2169;49.086;9.284;2022-07-23T04:46:21;4.73;;;4.40;;
4311;SDS011;2169;49.086;9.284;2022-07-23T04:48:49;5.67;;;5.07;;
4311;SDS011;2169;49.086;9.284;2022-07-23T04:51:16;6.70;;;5.30;;
4311;SDS011;2169;49.086;9.284;2022-07-23T04:53:43;5.47;;;4.83;;
4311;SDS011;2169;49.086;9.284;2022-07-23T04:56:09;5.57;;;5.07;;
4311;SDS011;2169;49.086;9.284;2022-07-23T04:58:36;5.97;;;5.47;;
4311;SDS011;2169;49.086;9.284;2022-07-23T05:01:03;5.60;;;4.77;;
4311;SDS011;2169;49.086;9.284;2022-07-23T05:03:30;5.73;;;5.23;;
4311;SDS011;2169;49.086;9.284;2022-07-23T05:05:58;7.20;;;5.70;;
4311;SDS011;2169;49.086;9.284;2022-07-23T05:08:25;5.20;;;4.70;;
4311;SDS011;2169;49.086;9.284;2022-07-23T05:10:52;6.10;;;5.37;;
4311;SDS011;2169;49.086;9.284;2022-07-23T05:13:19;6.60;;;6.10;;
4311;SDS011;2169;49.086;9.284;2022-07-23T05:15:46;8.13;;;6.97;;
4311;SDS011;2169;49.086;9.284;2022-07-23T05:18:13;5.63;;;5.17;;
4311;SDS011;2169;49.086;9.284;2022-07-23T05:20:40;5.50;;;5.00;;
4311;SDS011;2169;49.086;9.284;2022-07-23T05:23:08;7.70;;;6.50;;
4311;SDS011;2169;49.086;9.284;2022-07-23T05:25:35;28.13;;;5.93;;
4311;SDS011;2169;49.086;9.284;2022-07-23T05:28:02;6.37;;;5.80;;
4311;SDS011;2169;49.086;9.284;2022-07-23T05:30:29;7.17;;;5.83;;
4311;SDS011;2169;49.086;9.284;2022-07-23T05:32:56;7.40;;;5.43;;
4311;SDS011;2169;49.086;9.284;2022-07-23T05:35:23;5.93;;;5.33;;
4311;SDS011;2169;49.086;9.284;2022-07-23T05:37:50;5.60;;;5.20;;
4311;SDS011;2169;49.086;9.284;2022-07-23T05:40:19;5.23;;;4.83;;
4311;SDS011;2169;49.086;9.284;2022-07-23T05:42:46;8.03;;;6.93;;
4311;SDS011;2169;49.086;9.284;2022-07-23T05:45:12;12.13;;;5.90;;
4311;SDS011;2169;49.086;9.284;2022-07-23T05:47:42;14.63;;;6.77;;
4311;SDS011;2169;49.086;9.284;2022-07-23T05:50:10;8.17;;;7.03;;
4311;SDS011;2169;49.086;9.284;2022-07-23T05:52:38;6.93;;;6.23;;
4311;SDS011;2169;49.086;9.284;2022-07-23T05:55:05;10.90;;;5.63;;
4311;SDS011;2169;49.086;9.284;2022-07-23T05:57:33;12.30;;;10.53;;
4311;SDS011;2169;49.086;9.284;2022-07-23T06:00:00;7.70;;;6.53;;
4311;SDS011;2169;49.086;9.284;2022-07-23T06:02:28;9.27;;;6.17;;
4311;SDS011;2169;49.086;9.284;2022-07-23T06:04:54;7.83;;;7.07;;
4311;SDS011;2169;49.086;9.284;2022-07-23T06:07:21;6.70;;;5.27;;
4311;SDS011;2169;49.086;9.284;2022-07-23T06:09:48;16.93;;;6.40;;
4311;SDS011;2169;49.086;9.284;2022-07-23T06:12:15;13.90;;;7.10;;
4311;SDS011;2169;49.086;9.284;2022-07-23T06:14:44;6.50;;;5.20;;
4311;SDS011;2169;49.086;9.284;2022-07-23T06:17:13;20.20;;;6.30;;
4311;SDS011;2169;49.086;9.284;2022-07-23T06:19:40;8.47;;;6.60;;
4311;SDS011;2169;49.086;9.284;2022-07-23T06:22:07;13.70;;;6.17;;
4311;SDS011;2169;49.086;9.284;2022-07-23T06:24:33;9.30;;;5.20;;
4311;SDS011;2169;49.086;9.284;2022-07-23T06:27:00;8.33;;;6.10;;
4311;SDS011;2169;49.086;9.284;2022-07-23T06:29:27;8.07;;;6.43;;
4311;SDS011;2169;49.086;9.284;2022-07-23T06:31:55;6.50;;;5.90;;
4311;SDS011;2169;49.086;9.284;2022-07-23T06:34:22;11.50;;;7.37;;
4311;SDS011;2169;49.086;9.284;2022-07-23T06:36:49;6.13;;;5.43;;
4311;SDS011;2169;49.086;9.284;2022-07-23T06:39:15;7.67;;;6.00;;
4311;SDS011;2169;49.086;9.284;2022-07-23T06:41:42;9.43;;;6.63;;
4311;SDS011;2169;49.086;9.284;2022-07-23T06:44:09;9.70;;;7.10;;
4311;SDS011;2169;49.086;9.284;2022-07-23T06:46:36;8.63;;;6.13;;
4311;SDS011;2169;49.086;9.284;2022-07-23T06:49:04;6.20;;;5.60;;
4311;SDS011;2169;49.086;9.284;2022-07-23T06:51:31;8.80;;;6.67;;
4311;SDS011;2169;49.086;9.284;2022-07-23T06:53:57;8.77;;;6.20;;
4311;SDS011;2169;49.086;9.284;2022-07-23T06:56:24;15.20;;;7.00;;
4311;SDS011;2169;49.086;9.284;2022-07-23T06:58:51;9.23;;;8.30;;
4311;SDS011;2169;49.086;9.284;2022-07-23T07:01:18;18.30;;;7.47;;
4311;SDS011;2169;49.086;9.284;2022-07-23T07:03:46;11.77;;;7.90;;
4311;SDS011;2169;49.086;9.284;2022-07-23T07:06:14;9.13;;;6.57;;
4311;SDS011;2169;49.086;9.284;2022-07-23T07:08:41;9.60;;;6.90;;
4311;SDS011;2169;49.086;9.284;2022-07-23T07:11:09;7.73;;;6.30;;
4311;SDS011;2169;49.086;9.284;2022-07-23T07:13:35;5.97;;;5.47;;
4311;SDS011;2169;49.086;9.284;2022-07-23T07:16:03;8.07;;;7.17;;
4311;SDS011;2169;49.086;9.284;2022-07-23T07:18:30;10.43;;;7.93;;
4311;SDS011;2169;49.086;9.284;2022-07-23T07:20:57;8.80;;;7.10;;
4311;SDS011;2169;49.086;9.284;2022-07-23T07:23:25;10.00;;;7.13;;
4311;SDS011;2169;49.086;9.284;2022-07-23T07:25:52;10.37;;;8.23;;
4311;SDS011;2169;49.086;9.284;2022-07-23T07:28:18;10.43;;;7.10;;
4311;SDS011;2169;49.086;9.284;2022-07-23T07:30:45;13.13;;;7.80;;
4311;SDS011;2169;49.086;9.284;2022-07-23T07:33:12;11.93;;;8.60;;
4311;SDS011;2169;49.086;9.284;2022-07-23T07:35:39;8.40;;;6.80;;
4311;SDS011;2169;49.086;9.284;2022-07-23T07:38:06;10.33;;;7.13;;
4311;SDS011;2169;49.086;9.284;2022-07-23T07:40:34;7.90;;;6.70;;
4311;SDS011;2169;49.086;9.284;2022-07-23T07:43:00;12.83;;;9.03;;
4311;SDS011;2169;49.086;9.284;2022-07-23T07:45:28;9.60;;;7.80;;
4311;SDS011;2169;49.086;9.284;2022-07-23T07:47:55;10.73;;;7.67;;
4311;SDS011;2169;49.086;9.284;2022-07-23T07:50:22;10.97;;;8.20;;
4311;SDS011;2169;49.086;9.284;2022-07-23T07:52:49;13.70;;;6.53;;
4311;SDS011;2169;49.086;9.284;2022-07-23T07:55:16;15.27;;;9.50;;
4311;SDS011;2169;49.086;9.284;2022-07-23T07:57:44;7.83;;;6.00;;
4311;SDS011;2169;49.086;9.284;2022-07-23T08:00:11;7.90;;;6.63;;
4311;SDS011;2169;49.086;9.284;2022-07-23T08:02:42;11.23;;;8.47;;
4311;SDS011;2169;49.086;9.284;2022-07-23T08:05:10;10.17;;;8.17;;
4311;SDS011;2169;49.086;9.284;2022-07-23T08:07:38;7.73;;;6.60;;
4311;SDS011;2169;49.086;9.284;2022-07-23T08:10:06;10.57;;;8.47;;
4311;SDS011;2169;49.086;9.284;2022-07-23T08:12:38;10.20;;;7.13;;
4311;SDS011;2169;49.086;9.284;2022-07-23T08:15:08;10.83;;;8.67;;
4311;SDS011;2169;49.086;9.284;2022-07-23T08:17:35;16.10;;;8.70;;
4311;SDS011;2169;49.086;9.284;2022-07-23T08:20:02;11.30;;;8.40;;
4311;SDS011;2169;49.086;9.284;2022-07-23T08:22:46;18.53;;;8.17;;
4311;SDS011;2169;49.086;9.284;2022-07-23T08:25:15;7.50;;;6.27;;
4311;SDS011;2169;49.086;9.284;2022-07-23T08:27:42;6.47;;;5.87;;
4311;SDS011;2169;49.086;9.284;2022-07-23T08:30:11;9.07;;;7.60;;
4311;SDS011;2169;49.086;9.284;2022-07-23T08:32:48;19.40;;;7.13;;
4311;SDS011;2169;49.086;9.284;2022-07-23T08:35:15;14.50;;;10.37;;
4311;SDS011;2169;49.086;9.284;2022-07-23T08:37:42;10.93;;;8.47;;
4311;SDS011;2169;49.086;9.284;2022-07-23T08:40:10;11.80;;;8.50;;
4311;SDS011;2169;49.086;9.284;2022-07-23T08:42:37;10.60;;;8.43;;
4311;SDS011;2169;49.086;9.284;2022-07-23T08:45:04;10.40;;;7.53;;
4311;SDS011;2169;49.086;9.284;2022-07-23T08:47:35;12.07;;;8.47;;
4311;SDS011;2169;49.086;9.284;2022-07-23T08:50:03;15.30;;;7.80;;
4311;SDS011;2169;49.086;9.284;2022-07-23T08:52:32;10.03;;;7.63;;
4311;SDS011;2169;49.086;9.284;2022-07-23T08:54:59;12.20;;;8.70;;
4311;SDS011;2169;49.086;9.284;2022-07-23T08:57:27;19.40;;;8.30;;
4311;SDS011;2169;49.086;9.284;2022-07-23T08:59:54;9.20;;;7.23;;
4311;SDS011;2169;49.086;9.284;2022-07-23T09:02:21;13.20;;;8.07;;
4311;SDS011;2169;49.086;9.284;2022-07-23T09:04:49;11.20;;;8.10;;
4311;SDS011;2169;49.086;9.284;2022-07-23T09:07:16;12.60;;;7.13;;
4311;SDS011;2169;49.086;9.284;2022-07-23T09:09:42;12.13;;;7.80;;
4311;SDS011;2169;49.086;9.284;2022-07-23T09:12:10;15.70;;;8.53;;
4311;SDS011;2169;49.086;9.284;2022-07-23T09:14:38;19.97;;;9.63;;
4311;SDS011;2169;49.086;9.284;2022-07-23T09:17:12;10.77;;;8.07;;
4311;SDS011;2169;49.086;9.284;2022-07-23T09:19:40;14.47;;;7.60;;
4311;SDS011;2169;49.086;9.284;2022-07-23T09:22:20;11.97;;;7.40;;
4311;SDS011;2169;49.086;9.284;2022-07-23T09:25:03;10.00;;;6.83;;
4311;SDS011;2169;49.086;9.284;2022-07-23T09:27:46;11.63;;;8.30;;
4311;SDS011;2169;49.086;9.284;2022-07-23T09:30:15;12.50;;;8.67;;
4311;SDS011;2169;49.086;9.284;2022-07-23T09:32:42;15.80;;;8.23;;
4311;SDS011;2169;49.086;9.284;2022-07-23T09:35:09;11.13;;;8.70;;
4311;SDS011;2169;49.086;9.284;2022-07-23T09:37:37;10.80;;;7.03;;
4311;SDS011;2169;49.086;9.284;2022-07-23T09:40:04;10.47;;;9.40;;
4311;SDS011;2169;49.086;9.284;2022-07-23T09:42:32;9.07;;;7.63;;
4311;SDS011;2169;49.086;9.284;2022-07-23T09:44:59;8.53;;;7.53;;
4311;SDS011;2169;49.086;9.284;2022-07-23T09:47:27;10.93;;;9.07;;
4311;SDS011;2169;49.086;9.284;2022-07-23T09:49:59;9.20;;;7.60;;
4311;SDS011;2169;49.086;9.284;2022-07-23T09:52:27;15.43;;;10.27;;
4311;SDS011;2169;49.086;9.284;2022-07-23T09:54:59;9.97;;;7.60;;
4311;SDS011;2169;49.086;9.284;2022-07-23T09:57:28;9.73;;;7.57;;
4311;SDS011;2169;49.086;9.284;2022-07-23T09:59:57;7.87;;;7.07;;
4311;SDS011;2169;49.086;9.284;2022-07-23T10:02:27;10.37;;;7.60;;
4311;SDS011;2169;49.086;9.284;2022-07-23T10:04:54;13.50;;;9.30;;
4311;SDS011;2169;49.086;9.284;2022-07-23T10:07:22;7.67;;;6.70;;
4311;SDS011;2169;49.086;9.284;2022-07-23T10:09:49;7.73;;;6.97;;
4311;SDS011;2169;49.086;9.284;2022-07-23T10:12:19;8.67;;;7.40;;
4311;SDS011;2169;49.086;9.284;2022-07-23T10:15:01;8.87;;;6.60;;
4311;SDS011;2169;49.086;9.284;2022-07-23T10:17:30;12.07;;;7.80;;
4311;SDS011;2169;49.086;9.284;2022-07-23T10:19:57;9.63;;;6.43;;
4311;SDS011;2169;49.086;9.284;2022-07-23T10:22:24;7.67;;;6.83;;
4311;SDS011;2169;49.086;9.284;2022-07-23T10:24:55;5.93;;;5.43;;
4311;SDS011;2169;49.086;9.284;2022-07-23T10:30:39;7.37;;;5.70;;
4311;SDS011;2169;49.086;9.284;2022-07-23T10:33:20;4.60;;;4.17;;
4311;SDS011;2169;49.086;9.284;2022-07-23T10:35:58;12.10;;;6.97;;
4311;SDS011;2169;49.086;9.284;2022-07-23T10:38:30;9.23;;;5.13;;
4311;SDS011;2169;49.086;9.284;2022-07-23T10:41:04;6.67;;;5.47;;
4311;SDS011;2169;49.086;9.284;2022-07-23T10:43:31;5.10;;;4.40;;
4311;SDS011;2169;49.086;9.284;2022-07-23T10:54:56;4.63;;;4.33;;
4311;SDS011;2169;49.086;9.284;2022-07-23T10:57:47;4.53;;;3.30;;
4311;SDS011;2169;49.086;9.284;2022-07-23T11:00:15;4.90;;;3.90;;
4311;SDS011;2169;49.086;9.284;2022-07-23T11:02:47;3.17;;;2.93;;
4311;SDS011;2169;49.086;9.284;2022-07-23T11:05:16;3.70;;;3.40;;
4311;SDS011;2169;49.086;9.284;2022-07-23T11:10:40;7.10;;;4.73;;
4311;SDS011;2169;49.086;9.284;2022-07-23T11:16:04;8.33;;;4.70;;
4311;SDS011;2169;49.086;9.284;2022-07-23T11:18:54;5.53;;;4.97;;
4311;SDS011;2169;49.086;9.284;2022-07-23T11:21:40;4.33;;;3.93;;
4311;SDS011;2169;49.086;9.284;2022-07-23T11:24:12;5.80;;;5.00;;
4311;SDS011;2169;49.086;9.284;2022-07-23T11:26:40;4.30;;;3.90;;
4311;SDS011;2169;49.086;9.284;2022-07-23T11:32:22;8.40;;;3.93;;
4311;SDS011;2169;49.086;9.284;2022-07-23T11:37:54;5.30;;;3.90;;
4311;SDS011;2169;49.086;9.284;2022-07-23T11:40:30;7.40;;;6.43;;
4311;SDS011;2169;49.086;9.284;2022-07-23T11:42:58;10.37;;;5.30;;
4311;SDS011;2169;49.086;9.284;2022-07-23T11:45:30;8.20;;;4.20;;
4311;SDS011;2169;49.086;9.284;2022-07-23T11:47:59;8.97;;;4.80;;
4311;SDS011;2169;49.086;9.284;2022-07-23T11:50:27;5.33;;;4.73;;
4311;SDS011;2169;49.086;9.284;2022-07-23T11:52:55;5.67;;;4.50;;
4311;SDS011;2169;49.086;9.284;2022-07-23T11:55:22;5.57;;;5.10;;
4311;SDS011;2169;49.086;9.284;2022-07-23T11:57:50;6.70;;;5.00;;
4311;SDS011;2169;49.086;9.284;2022-07-23T12:00:18;4.30;;;3.90;;
4311;SDS011;2169;49.086;9.284;2022-07-23T12:02:47;6.20;;;4.70;;
4311;SDS011;2169;49.086;9.284;2022-07-23T12:05:16;5.67;;;4.17;;
4311;SDS011;2169;49.086;9.284;2022-07-23T12:07:46;5.13;;;4.63;;
4311;SDS011;2169;49.086;9.284;2022-07-23T12:10:16;7.70;;;4.30;;
4311;SDS011;2169;49.086;9.284;2022-07-23T12:12:44;4.90;;;4.43;;
4311;SDS011;2169;49.086;9.284;2022-07-23T12:15:14;3.00;;;2.87;;
4311;SDS011;2169;49.086;9.284;2022-07-23T12:17:43;4.10;;;3.80;;
4311;SDS011;2169;49.086;9.284;2022-07-23T12:20:12;3.17;;;2.97;;
4311;SDS011;2169;49.086;9.284;2022-07-23T12:22:40;3.37;;;3.17;;
4311;SDS011;2169;49.086;9.284;2022-07-23T12:25:11;4.00;;;3.53;;
4311;SDS011;2169;49.086;9.284;2022-07-23T12:27:40;5.47;;;4.90;;
4311;SDS011;2169;49.086;9.284;2022-07-23T12:30:16;5.50;;;3.67;;
4311;SDS011;2169;49.086;9.284;2022-07-23T12:32:45;3.60;;;3.40;;
4311;SDS011;2169;49.086;9.284;2022-07-23T12:35:14;5.17;;;3.50;;
4311;SDS011;2169;49.086;9.284;2022-07-23T12:37:41;3.13;;;2.90;;
4311;SDS011;2169;49.086;9.284;2022-07-23T12:40:24;4.10;;;3.80;;
4311;SDS011;2169;49.086;9.284;2022-07-23T12:42:53;3.77;;;3.40;;
4311;SDS011;2169;49.086;9.284;2022-07-23T12:45:22;4.47;;;4.20;;
4311;SDS011;2169;49.086;9.284;2022-07-23T12:47:54;8.83;;;4.57;;
4311;SDS011;2169;49.086;9.284;2022-07-23T12:50:41;3.63;;;3.33;;
4311;SDS011;2169;49.086;9.284;2022-07-23T12:53:10;5.73;;;4.83;;
4311;SDS011;2169;49.086;9.284;2022-07-23T12:55:40;4.90;;;4.03;;
4311;SDS011;2169;49.086;9.284;2022-07-23T12:58:09;4.27;;;3.97;;
4311;SDS011;2169;49.086;9.284;2022-07-23T13:03:35;4.27;;;3.87;;
4311;SDS011;2169;49.086;9.284;2022-07-23T13:06:04;5.50;;;5.03;;
4311;SDS011;2169;49.086;9.284;2022-07-23T13:08:33;7.13;;;5.00;;
4311;SDS011;2169;49.086;9.284;2022-07-23T13:11:03;4.43;;;4.07;;
4311;SDS011;2169;49.086;9.284;2022-07-23T13:13:31;6.13;;;4.60;;
4311;SDS011;2169;49.086;9.284;2022-07-23T13:16:00;5.67;;;4.13;;
4311;SDS011;2169;49.086;9.284;2022-07-23T13:18:27;6.80;;;3.50;;
4311;SDS011;2169;49.086;9.284;2022-07-23T13:20:54;4.57;;;3.70;;
4311;SDS011;2169;49.086;9.284;2022-07-23T13:23:22;4.47;;;2.87;;
4311;SDS011;2169;49.086;9.284;2022-07-23T13:25:49;6.33;;;3.90;;
4311;SDS011;2169;49.086;9.284;2022-07-23T13:28:18;4.93;;;4.33;;
4311;SDS011;2169;49.086;9.284;2022-07-23T13:30:46;4.73;;;4.20;;
4311;SDS011;2169;49.086;9.284;2022-07-23T13:33:15;4.57;;;4.10;;
4311;SDS011;2169;49.086;9.284;2022-07-23T13:35:43;5.00;;;4.60;;
4311;SDS011;2169;49.086;9.284;2022-07-23T13:38:10;5.43;;;3.93;;
4311;SDS011;2169;49.086;9.284;2022-07-23T13:40:38;9.63;;;4.90;;
4311;SDS011;2169;49.086;9.284;2022-07-23T13:43:07;5.43;;;4.93;;
4311;SDS011;2169;49.086;9.284;2022-07-23T13:45:35;4.30;;;3.90;;
4311;SDS011;2169;49.086;9.284;2022-07-23T13:48:03;5.40;;;4.90;;
4311;SDS011;2169;49.086;9.284;2022-07-23T13:50:30;8.17;;;3.73;;
4311;SDS011;2169;49.086;9.284;2022-07-23T13:52:59;4.60;;;4.13;;
4311;SDS011;2169;49.086;9.284;2022-07-23T13:55:27;4.33;;;3.93;;
4311;SDS011;2169;49.086;9.284;2022-07-23T13:57:54;5.97;;;5.33;;
4311;SDS011;2169;49.086;9.284;2022-07-23T14:00:21;5.10;;;3.90;;
4311;SDS011;2169;49.086;9.284;2022-07-23T14:02:49;5.80;;;3.83;;
4311;SDS011;2169;49.086;9.284;2022-07-23T14:05:16;4.27;;;3.97;;
4311;SDS011;2169;49.086;9.284;2022-07-23T14:07:43;5.80;;;4.43;;
4311;SDS011;2169;49.086;9.284;2022-07-23T14:10:11;5.10;;;4.50;;
4311;SDS011;2169;49.086;9.284;2022-07-23T14:12:39;4.57;;;4.20;;
4311;SDS011;2169;49.086;9.284;2022-07-23T14:15:06;3.33;;;3.13;;
4311;SDS011;2169;49.086;9.284;2022-07-23T14:17:35;7.20;;;3.50;;
4311;SDS011;2169;49.086;9.284;2022-07-23T14:20:04;4.93;;;3.90;;
4311;SDS011;2169;49.086;9.284;2022-07-23T14:22:32;6.87;;;5.33;;
4311;SDS011;2169;49.086;9.284;2022-07-23T14:24:59;4.63;;;4.20;;
4311;SDS011;2169;49.086;9.284;2022-07-23T14:27:26;4.10;;;3.80;;
4311;SDS011;2169;49.086;9.284;2022-07-23T14:29:54;4.27;;;3.93;;
4311;SDS011;2169;49.086;9.284;2022-07-23T14:32:21;9.67;;;4.43;;
4311;SDS011;2169;49.086;9.284;2022-07-23T14:34:49;5.43;;;4.80;;
4311;SDS011;2169;49.086;9.284;2022-07-23T14:37:17;4.20;;;3.67;;
4311;SDS011;2169;49.086;9.284;2022-07-23T14:39:44;5.30;;;4.03;;
4311;SDS011;2169;49.086;9.284;2022-07-23T14:42:12;4.57;;;3.90;;
4311;SDS011;2169;49.086;9.284;2022-07-23T14:44:39;4.93;;;4.37;;
4311;SDS011;2169;49.086;9.284;2022-07-23T14:47:07;4.77;;;4.27;;
4311;SDS011;2169;49.086;9.284;2022-07-23T14:49:35;10.20;;;5.00;;
4311;SDS011;2169;49.086;9.284;2022-07-23T14:52:02;10.70;;;5.33;;
4311;SDS011;2169;49.086;9.284;2022-07-23T14:54:31;6.40;;;5.77;;
4311;SDS011;2169;49.086;9.284;2022-07-23T14:56:58;5.30;;;4.30;;
4311;SDS011;2169;49.086;9.284;2022-07-23T14:59:27;5.10;;;4.60;;
4311;SDS011;2169;49.086;9.284;2022-07-23T15:01:55;6.43;;;4.87;;
4311;SDS011;2169;49.086;9.284;2022-07-23T15:04:22;4.97;;;4.40;;
4311;SDS011;2169;49.086;9.284;2022-07-23T15:06:50;5.23;;;4.43;;
4311;SDS011;2169;49.086;9.284;2022-07-23T15:09:16;6.67;;;4.93;;
4311;SDS011;2169;49.086;9.284;2022-07-23T15:11:45;6.53;;;4.33;;
4311;SDS011;2169;49.086;9.284;2022-07-23T15:14:12;5.47;;;4.93;;
4311;SDS011;2169;49.086;9.284;2022-07-23T15:16:38;4.30;;;3.93;;
4311;SDS011;2169;49.086;9.284;2022-07-23T15:19:05;8.03;;;4.43;;
4311;SDS011;2169;49.086;9.284;2022-07-23T15:21:32;4.10;;;3.70;;
4311;SDS011;2169;49.086;9.284;2022-07-23T15:23:59;5.50;;;4.77;;
4311;SDS011;2169;49.086;9.284;2022-07-23T15:26:26;4.60;;;4.20;;
4311;SDS011;2169;49.086;9.284;2022-07-23T15:28:55;11.20;;;5.40;;
4311;SDS011;2169;49.086;9.284;2022-07-23T15:31:23;8.93;;;4.90;;
4311;SDS011;2169;49.086;9.284;2022-07-23T15:33:50;5.60;;;5.10;;
4311;SDS011;2169;49.086;9.284;2022-07-23T15:36:17;4.90;;;4.47;;
4311;SDS011;2169;49.086;9.284;2022-07-23T15:38:44;5.17;;;4.77;;
4311;SDS011;2169;49.086;9.284;2022-07-23T15:41:11;5.87;;;5.33;;
4311;SDS011;2169;49.086;9.284;2022-07-23T15:43:38;5.60;;;5.20;;
4311;SDS011;2169;49.086;9.284;2022-07-23T15:46:06;4.90;;;4.60;;